sensor_id;sensor_type;location;lat;lon;timestamp;temperature;humidity
418;DHT22;49;48.530;9.200;2023-05-07T00:01:42;19.20;51.00
418;DHT22;49;48.530;9.200;2023-05-07T00:04:09;19.40;49.50
418;DHT22;49;48.530;9.200;2023-05-07T00:06:37;19.40;50.00
418;DHT22;49;48.530;9.200;2023-05-07T00:09:05;19.30;51.00
418;DHT22;49;48.530;9.200;2023-05-07T00:11:32;19.20;51.70
418;DHT22;49;48.530;9.200;2023-05-07T00:13:59;19.20;52.50
418;DHT22;49;48.530;9.200;2023-05-07T00:16:26;19.10;52.20
418;DHT22;49;48.530;9.200;2023-05-07T00:18:53;19.10;52.90
418;DHT22;49;48.530;9.200;2023-05-07T00:21:20;19.20;52.80
418;DHT22;49;48.530;9.200;2023-05-07T00:23:49;19.10;53.00
418;DHT22;49;48.530;9.200;2023-05-07T00:26:16;19.10;53.20
418;DHT22;49;48.530;9.200;2023-05-07T00:28:42;19.00;54.20
418;DHT22;49;48.530;9.200;2023-05-07T00:31:09;19.00;54.20
418;DHT22;49;48.530;9.200;2023-05-07T00:33:37;18.90;54.80
418;DHT22;49;48.530;9.200;2023-05-07T00:36:05;18.90;54.60
418;DHT22;49;48.530;9.200;2023-05-07T00:38:31;18.80;55.00
418;DHT22;49;48.530;9.200;2023-05-07T00:41:00;18.90;54.80
418;DHT22;49;48.530;9.200;2023-05-07T00:43:27;18.80;54.80
418;DHT22;49;48.530;9.200;2023-05-07T00:45:55;18.90;55.00
418;DHT22;49;48.530;9.200;2023-05-07T00:48:22;18.90;54.20
418;DHT22;49;48.530;9.200;2023-05-07T00:50:49;18.80;55.40
418;DHT22;49;48.530;9.200;2023-05-07T00:53:17;18.70;55.70
418;DHT22;49;48.530;9.200;2023-05-07T00:55:44;18.70;55.30
418;DHT22;49;48.530;9.200;2023-05-07T00:58:12;18.80;56.10
418;DHT22;49;48.530;9.200;2023-05-07T01:00:39;18.70;55.60
418;DHT22;49;48.530;9.200;2023-05-07T01:03:07;18.70;55.60
418;DHT22;49;48.530;9.200;2023-05-07T01:05:34;18.70;55.20
418;DHT22;49;48.530;9.200;2023-05-07T01:08:02;18.70;55.30
418;DHT22;49;48.530;9.200;2023-05-07T01:10:30;18.60;55.30
418;DHT22;49;48.530;9.200;2023-05-07T01:12:58;18.60;54.90
418;DHT22;49;48.530;9.200;2023-05-07T01:15:27;18.60;54.40
418;DHT22;49;48.530;9.200;2023-05-07T01:17:55;18.60;54.00
418;DHT22;49;48.530;9.200;2023-05-07T01:20:23;18.80;53.30
418;DHT22;49;48.530;9.200;2023-05-07T01:22:51;18.70;54.30
418;DHT22;49;48.530;9.200;2023-05-07T01:25:18;18.70;54.40
418;DHT22;49;48.530;9.200;2023-05-07T01:27:45;18.90;53.10
418;DHT22;49;48.530;9.200;2023-05-07T01:30:12;18.80;53.20
418;DHT22;49;48.530;9.200;2023-05-07T01:32:42;18.60;54.20
418;DHT22;49;48.530;9.200;2023-05-07T01:35:11;18.40;56.30
418;DHT22;49;48.530;9.200;2023-05-07T01:37:39;18.20;57.60
418;DHT22;49;48.530;9.200;2023-05-07T01:40:09;18.20;57.80
418;DHT22;49;48.530;9.200;2023-05-07T01:42:36;18.10;58.00
418;DHT22;49;48.530;9.200;2023-05-07T01:45:04;18.00;59.60
418;DHT22;49;48.530;9.200;2023-05-07T01:47:31;18.20;57.10
418;DHT22;49;48.530;9.200;2023-05-07T01:49:58;18.30;57.10
418;DHT22;49;48.530;9.200;2023-05-07T01:52:26;18.30;57.10
418;DHT22;49;48.530;9.200;2023-05-07T01:54:53;18.30;57.80
418;DHT22;49;48.530;9.200;2023-05-07T01:57:22;18.30;57.10
418;DHT22;49;48.530;9.200;2023-05-07T01:59:49;18.20;58.10
418;DHT22;49;48.530;9.200;2023-05-07T02:02:16;18.20;58.30
418;DHT22;49;48.530;9.200;2023-05-07T02:04:42;18.10;58.20
418;DHT22;49;48.530;9.200;2023-05-07T02:07:09;18.20;58.30
418;DHT22;49;48.530;9.200;2023-05-07T02:09:36;18.20;58.00
418;DHT22;49;48.530;9.200;2023-05-07T02:12:04;18.20;58.10
418;DHT22;49;48.530;9.200;2023-05-07T02:14:32;18.20;58.60
418;DHT22;49;48.530;9.200;2023-05-07T02:16:59;18.00;59.70
418;DHT22;49;48.530;9.200;2023-05-07T02:19:26;17.90;60.60
418;DHT22;49;48.530;9.200;2023-05-07T02:21:53;17.90;60.70
418;DHT22;49;48.530;9.200;2023-05-07T02:24:20;17.80;61.10
418;DHT22;49;48.530;9.200;2023-05-07T02:26:47;18.00;60.90
418;DHT22;49;48.530;9.200;2023-05-07T02:29:14;17.90;61.10
418;DHT22;49;48.530;9.200;2023-05-07T02:31:42;17.80;61.80
418;DHT22;49;48.530;9.200;2023-05-07T02:34:09;17.70;61.10
418;DHT22;49;48.530;9.200;2023-05-07T02:36:36;17.80;61.60
418;DHT22;49;48.530;9.200;2023-05-07T02:39:03;17.80;60.60
418;DHT22;49;48.530;9.200;2023-05-07T02:41:30;17.60;60.90
418;DHT22;49;48.530;9.200;2023-05-07T02:43:57;17.80;60.30
418;DHT22;49;48.530;9.200;2023-05-07T02:46:24;17.70;61.20
418;DHT22;49;48.530;9.200;2023-05-07T02:48:52;17.60;59.70
418;DHT22;49;48.530;9.200;2023-05-07T02:51:21;17.60;61.20
418;DHT22;49;48.530;9.200;2023-05-07T02:53:48;17.60;62.00
418;DHT22;49;48.530;9.200;2023-05-07T02:56:14;17.50;61.50
418;DHT22;49;48.530;9.200;2023-05-07T02:58:42;17.60;61.10
418;DHT22;49;48.530;9.200;2023-05-07T03:01:09;17.60;60.50
418;DHT22;49;48.530;9.200;2023-05-07T03:03:36;17.70;60.00
418;DHT22;49;48.530;9.200;2023-05-07T03:06:04;17.60;58.30
418;DHT22;49;48.530;9.200;2023-05-07T03:08:32;17.40;60.30
418;DHT22;49;48.530;9.200;2023-05-07T03:10:59;17.40;60.90
418;DHT22;49;48.530;9.200;2023-05-07T03:13:25;17.50;63.30
418;DHT22;49;48.530;9.200;2023-05-07T03:15:52;17.70;59.80
418;DHT22;49;48.530;9.200;2023-05-07T03:18:19;17.60;60.00
418;DHT22;49;48.530;9.200;2023-05-07T03:20:47;17.40;61.80
418;DHT22;49;48.530;9.200;2023-05-07T03:23:16;17.50;61.10
418;DHT22;49;48.530;9.200;2023-05-07T03:25:43;17.40;61.60
418;DHT22;49;48.530;9.200;2023-05-07T03:28:09;17.30;60.70
418;DHT22;49;48.530;9.200;2023-05-07T03:30:36;17.20;61.30
418;DHT22;49;48.530;9.200;2023-05-07T03:33:03;17.20;61.00
418;DHT22;49;48.530;9.200;2023-05-07T03:35:30;17.20;61.00
418;DHT22;49;48.530;9.200;2023-05-07T03:37:57;17.40;62.10
418;DHT22;49;48.530;9.200;2023-05-07T03:40:25;17.60;62.30
418;DHT22;49;48.530;9.200;2023-05-07T03:42:52;17.60;60.90
418;DHT22;49;48.530;9.200;2023-05-07T03:45:20;17.40;61.00
418;DHT22;49;48.530;9.200;2023-05-07T03:47:47;17.50;61.40
418;DHT22;49;48.530;9.200;2023-05-07T03:50:13;17.60;60.50
418;DHT22;49;48.530;9.200;2023-05-07T03:52:40;17.50;60.00
418;DHT22;49;48.530;9.200;2023-05-07T03:55:08;17.50;60.70
418;DHT22;49;48.530;9.200;2023-05-07T03:57:36;17.30;61.10
418;DHT22;49;48.530;9.200;2023-05-07T04:00:04;17.30;60.70
418;DHT22;49;48.530;9.200;2023-05-07T04:02:33;17.40;60.40
418;DHT22;49;48.530;9.200;2023-05-07T04:05:00;17.60;61.20
418;DHT22;49;48.530;9.200;2023-05-07T04:07:26;17.40;60.60
418;DHT22;49;48.530;9.200;2023-05-07T04:09:53;17.50;61.10
418;DHT22;49;48.530;9.200;2023-05-07T04:12:20;17.40;60.50
418;DHT22;49;48.530;9.200;2023-05-07T04:14:49;17.50;60.30
418;DHT22;49;48.530;9.200;2023-05-07T04:17:15;17.60;62.80
418;DHT22;49;48.530;9.200;2023-05-07T04:19:42;17.70;60.70
418;DHT22;49;48.530;9.200;2023-05-07T04:22:10;17.70;59.20
418;DHT22;49;48.530;9.200;2023-05-07T04:24:37;17.50;60.10
418;DHT22;49;48.530;9.200;2023-05-07T04:27:04;17.50;60.30
418;DHT22;49;48.530;9.200;2023-05-07T04:29:31;17.40;60.20
418;DHT22;49;48.530;9.200;2023-05-07T04:32:00;17.20;60.00
418;DHT22;49;48.530;9.200;2023-05-07T04:34:27;17.40;60.00
418;DHT22;49;48.530;9.200;2023-05-07T04:36:53;17.30;62.00
418;DHT22;49;48.530;9.200;2023-05-07T04:39:20;17.30;62.10
418;DHT22;49;48.530;9.200;2023-05-07T04:41:47;17.50;61.10
418;DHT22;49;48.530;9.200;2023-05-07T04:44:14;17.50;62.40
418;DHT22;49;48.530;9.200;2023-05-07T04:46:42;17.60;61.60
418;DHT22;49;48.530;9.200;2023-05-07T04:49:10;17.70;60.70
418;DHT22;49;48.530;9.200;2023-05-07T04:51:37;17.80;59.30
418;DHT22;49;48.530;9.200;2023-05-07T04:54:08;17.70;58.90
418;DHT22;49;48.530;9.200;2023-05-07T04:56:35;17.80;59.10
418;DHT22;49;48.530;9.200;2023-05-07T04:59:01;17.80;58.90
418;DHT22;49;48.530;9.200;2023-05-07T05:01:28;17.90;58.40
418;DHT22;49;48.530;9.200;2023-05-07T05:03:55;17.90;58.50
418;DHT22;49;48.530;9.200;2023-05-07T05:06:23;18.00;58.10
418;DHT22;49;48.530;9.200;2023-05-07T05:08:51;18.00;57.90
418;DHT22;49;48.530;9.200;2023-05-07T05:11:17;18.10;57.80
418;DHT22;49;48.530;9.200;2023-05-07T05:13:44;18.10;58.30
418;DHT22;49;48.530;9.200;2023-05-07T05:16:13;18.40;57.20
418;DHT22;49;48.530;9.200;2023-05-07T05:18:40;18.70;55.70
418;DHT22;49;48.530;9.200;2023-05-07T05:21:07;18.90;54.30
418;DHT22;49;48.530;9.200;2023-05-07T05:23:35;19.10;54.00
418;DHT22;49;48.530;9.200;2023-05-07T05:26:02;19.00;54.10
418;DHT22;49;48.530;9.200;2023-05-07T05:28:29;19.20;53.80
418;DHT22;49;48.530;9.200;2023-05-07T05:30:56;19.60;59.40
418;DHT22;49;48.530;9.200;2023-05-07T05:33:23;21.00;55.90
418;DHT22;49;48.530;9.200;2023-05-07T05:35:50;22.60;53.70
418;DHT22;49;48.530;9.200;2023-05-07T05:38:17;24.30;40.50
418;DHT22;49;48.530;9.200;2023-05-07T05:40:45;25.20;37.50
418;DHT22;49;48.530;9.200;2023-05-07T05:43:13;26.20;31.20
418;DHT22;49;48.530;9.200;2023-05-07T05:45:40;27.30;27.80
418;DHT22;49;48.530;9.200;2023-05-07T05:48:07;27.60;24.80
418;DHT22;49;48.530;9.200;2023-05-07T05:50:33;27.90;23.00
418;DHT22;49;48.530;9.200;2023-05-07T05:53:02;28.10;22.90
418;DHT22;49;48.530;9.200;2023-05-07T05:55:29;28.70;21.40
418;DHT22;49;48.530;9.200;2023-05-07T05:57:59;29.20;19.00
418;DHT22;49;48.530;9.200;2023-05-07T06:00:26;29.00;18.80
418;DHT22;49;48.530;9.200;2023-05-07T06:02:53;28.60;21.00
418;DHT22;49;48.530;9.200;2023-05-07T06:05:20;28.60;19.30
418;DHT22;49;48.530;9.200;2023-05-07T06:07:47;29.00;19.20
418;DHT22;49;48.530;9.200;2023-05-07T06:10:13;28.90;19.00
418;DHT22;49;48.530;9.200;2023-05-07T06:12:40;29.10;17.80
418;DHT22;49;48.530;9.200;2023-05-07T06:15:10;29.20;17.60
418;DHT22;49;48.530;9.200;2023-05-07T06:17:36;28.90;18.50
418;DHT22;49;48.530;9.200;2023-05-07T06:20:04;28.70;18.40
418;DHT22;49;48.530;9.200;2023-05-07T06:22:31;28.50;19.00
418;DHT22;49;48.530;9.200;2023-05-07T06:24:58;28.60;19.30
418;DHT22;49;48.530;9.200;2023-05-07T06:27:25;28.70;19.20
418;DHT22;49;48.530;9.200;2023-05-07T06:29:53;29.10;19.50
418;DHT22;49;48.530;9.200;2023-05-07T06:32:21;29.80;17.90
418;DHT22;49;48.530;9.200;2023-05-07T06:34:48;29.70;17.90
418;DHT22;49;48.530;9.200;2023-05-07T06:37:15;30.10;17.30
418;DHT22;49;48.530;9.200;2023-05-07T06:39:42;29.80;17.50
418;DHT22;49;48.530;9.200;2023-05-07T06:42:09;29.90;18.00
418;DHT22;49;48.530;9.200;2023-05-07T06:44:36;30.20;17.00
418;DHT22;49;48.530;9.200;2023-05-07T06:47:03;30.00;17.60
418;DHT22;49;48.530;9.200;2023-05-07T06:49:32;30.10;17.00
418;DHT22;49;48.530;9.200;2023-05-07T06:51:59;30.30;16.30
418;DHT22;49;48.530;9.200;2023-05-07T06:54:26;30.30;15.90
418;DHT22;49;48.530;9.200;2023-05-07T06:56:53;30.40;15.70
418;DHT22;49;48.530;9.200;2023-05-07T06:59:20;30.00;15.70
418;DHT22;49;48.530;9.200;2023-05-07T07:01:47;30.10;16.10
418;DHT22;49;48.530;9.200;2023-05-07T07:04:14;29.70;16.70
418;DHT22;49;48.530;9.200;2023-05-07T07:06:42;29.30;16.80
418;DHT22;49;48.530;9.200;2023-05-07T07:09:09;29.20;16.60
418;DHT22;49;48.530;9.200;2023-05-07T07:11:36;28.50;17.30
418;DHT22;49;48.530;9.200;2023-05-07T07:14:03;28.20;18.50
418;DHT22;49;48.530;9.200;2023-05-07T07:16:30;28.60;18.60
418;DHT22;49;48.530;9.200;2023-05-07T07:18:57;28.90;18.10
418;DHT22;49;48.530;9.200;2023-05-07T07:21:24;29.50;17.40
418;DHT22;49;48.530;9.200;2023-05-07T07:23:52;29.70;17.40
418;DHT22;49;48.530;9.200;2023-05-07T07:26:19;30.40;15.00
418;DHT22;49;48.530;9.200;2023-05-07T07:28:46;31.10;14.50
418;DHT22;49;48.530;9.200;2023-05-07T07:31:13;31.50;14.20
418;DHT22;49;48.530;9.200;2023-05-07T07:33:40;31.60;13.50
418;DHT22;49;48.530;9.200;2023-05-07T07:36:07;31.80;13.20
418;DHT22;49;48.530;9.200;2023-05-07T07:38:34;32.70;12.50
418;DHT22;49;48.530;9.200;2023-05-07T07:41:03;33.20;12.10
418;DHT22;49;48.530;9.200;2023-05-07T07:43:30;33.40;11.10
418;DHT22;49;48.530;9.200;2023-05-07T07:45:56;33.70;10.80
418;DHT22;49;48.530;9.200;2023-05-07T07:48:23;32.80;11.30
418;DHT22;49;48.530;9.200;2023-05-07T07:50:50;32.70;11.10
418;DHT22;49;48.530;9.200;2023-05-07T07:53:17;31.90;12.30
418;DHT22;49;48.530;9.200;2023-05-07T07:55:45;31.70;12.90
418;DHT22;49;48.530;9.200;2023-05-07T07:58:13;31.10;13.90
418;DHT22;49;48.530;9.200;2023-05-07T08:00:40;30.30;14.90
418;DHT22;49;48.530;9.200;2023-05-07T08:03:09;29.40;16.30
418;DHT22;49;48.530;9.200;2023-05-07T08:05:36;28.60;17.30
418;DHT22;49;48.530;9.200;2023-05-07T08:08:04;28.10;18.20
418;DHT22;49;48.530;9.200;2023-05-07T08:10:31;28.10;18.30
418;DHT22;49;48.530;9.200;2023-05-07T08:13:00;28.00;18.90
418;DHT22;49;48.530;9.200;2023-05-07T08:15:28;28.20;18.20
418;DHT22;49;48.530;9.200;2023-05-07T08:17:55;28.30;18.00
418;DHT22;49;48.530;9.200;2023-05-07T08:20:22;27.90;18.70
418;DHT22;49;48.530;9.200;2023-05-07T08:22:49;27.50;19.60
418;DHT22;49;48.530;9.200;2023-05-07T08:25:17;27.40;20.00
418;DHT22;49;48.530;9.200;2023-05-07T08:27:44;27.40;20.40
418;DHT22;49;48.530;9.200;2023-05-07T08:30:12;27.40;20.30
418;DHT22;49;48.530;9.200;2023-05-07T08:32:41;27.70;20.40
418;DHT22;49;48.530;9.200;2023-05-07T08:35:09;28.20;19.30
418;DHT22;49;48.530;9.200;2023-05-07T08:37:36;28.40;18.90
418;DHT22;49;48.530;9.200;2023-05-07T08:40:03;28.60;18.70
418;DHT22;49;48.530;9.200;2023-05-07T08:42:33;28.90;19.10
418;DHT22;49;48.530;9.200;2023-05-07T08:45:03;29.30;18.40
418;DHT22;49;48.530;9.200;2023-05-07T08:47:37;29.10;18.60
418;DHT22;49;48.530;9.200;2023-05-07T08:50:07;29.10;17.80
418;DHT22;49;48.530;9.200;2023-05-07T08:52:35;28.90;18.10
418;DHT22;49;48.530;9.200;2023-05-07T08:55:03;28.90;18.10
418;DHT22;49;48.530;9.200;2023-05-07T08:57:30;29.10;18.20
418;DHT22;49;48.530;9.200;2023-05-07T08:59:57;28.80;17.90
418;DHT22;49;48.530;9.200;2023-05-07T09:02:24;28.60;18.10
418;DHT22;49;48.530;9.200;2023-05-07T09:04:50;28.60;19.00
418;DHT22;49;48.530;9.200;2023-05-07T09:07:20;28.80;19.20
418;DHT22;49;48.530;9.200;2023-05-07T09:09:47;28.90;18.20
418;DHT22;49;48.530;9.200;2023-05-07T09:12:14;28.80;19.00
418;DHT22;49;48.530;9.200;2023-05-07T09:14:41;28.90;19.20
418;DHT22;49;48.530;9.200;2023-05-07T09:17:08;28.90;19.00
418;DHT22;49;48.530;9.200;2023-05-07T09:19:35;29.00;19.10
418;DHT22;49;48.530;9.200;2023-05-07T09:22:03;29.00;18.90
418;DHT22;49;48.530;9.200;2023-05-07T09:24:31;28.90;20.30
418;DHT22;49;48.530;9.200;2023-05-07T09:27:02;28.80;20.10
418;DHT22;49;48.530;9.200;2023-05-07T09:29:29;28.70;19.30
418;DHT22;49;48.530;9.200;2023-05-07T09:32:00;29.10;19.30
418;DHT22;49;48.530;9.200;2023-05-07T09:34:28;29.30;18.80
418;DHT22;49;48.530;9.200;2023-05-07T09:36:55;29.50;18.60
418;DHT22;49;48.530;9.200;2023-05-07T09:39:23;29.30;18.10
418;DHT22;49;48.530;9.200;2023-05-07T09:41:51;29.50;18.60
418;DHT22;49;48.530;9.200;2023-05-07T09:44:20;29.10;18.20
418;DHT22;49;48.530;9.200;2023-05-07T09:46:53;28.50;19.30
418;DHT22;49;48.530;9.200;2023-05-07T09:49:22;28.20;20.00
418;DHT22;49;48.530;9.200;2023-05-07T09:51:50;28.00;20.00
418;DHT22;49;48.530;9.200;2023-05-07T09:54:17;27.40;22.20
418;DHT22;49;48.530;9.200;2023-05-07T09:56:44;27.80;21.50
418;DHT22;49;48.530;9.200;2023-05-07T09:59:15;27.90;19.80
418;DHT22;49;48.530;9.200;2023-05-07T10:01:42;27.70;21.40
418;DHT22;49;48.530;9.200;2023-05-07T10:04:11;28.00;20.30
418;DHT22;49;48.530;9.200;2023-05-07T10:06:38;28.10;20.60
418;DHT22;49;48.530;9.200;2023-05-07T10:09:05;28.00;20.40
418;DHT22;49;48.530;9.200;2023-05-07T10:11:33;28.20;20.00
418;DHT22;49;48.530;9.200;2023-05-07T10:14:01;28.50;20.00
418;DHT22;49;48.530;9.200;2023-05-07T10:16:31;28.90;19.20
418;DHT22;49;48.530;9.200;2023-05-07T10:18:58;29.20;18.70
418;DHT22;49;48.530;9.200;2023-05-07T10:21:27;29.30;17.60
418;DHT22;49;48.530;9.200;2023-05-07T10:23:58;29.30;17.60
418;DHT22;49;48.530;9.200;2023-05-07T10:26:27;29.20;18.40
418;DHT22;49;48.530;9.200;2023-05-07T10:28:59;29.10;18.10
418;DHT22;49;48.530;9.200;2023-05-07T10:31:59;29.10;17.60
418;DHT22;49;48.530;9.200;2023-05-07T10:34:36;29.40;17.70
418;DHT22;49;48.530;9.200;2023-05-07T10:37:04;29.40;17.70
418;DHT22;49;48.530;9.200;2023-05-07T10:39:31;29.30;16.80
418;DHT22;49;48.530;9.200;2023-05-07T10:42:07;28.60;16.40
418;DHT22;49;48.530;9.200;2023-05-07T10:44:35;28.10;17.00
418;DHT22;49;48.530;9.200;2023-05-07T10:47:11;28.30;17.10
418;DHT22;49;48.530;9.200;2023-05-07T10:52:44;29.00;13.20
418;DHT22;49;48.530;9.200;2023-05-07T10:55:21;28.70;14.40
418;DHT22;49;48.530;9.200;2023-05-07T10:57:50;29.10;14.50
418;DHT22;49;48.530;9.200;2023-05-07T11:00:43;28.80;14.80
418;DHT22;49;48.530;9.200;2023-05-07T11:03:14;28.90;15.60
418;DHT22;49;48.530;9.200;2023-05-07T11:05:42;29.40;15.40
418;DHT22;49;48.530;9.200;2023-05-07T11:08:09;29.20;14.50
418;DHT22;49;48.530;9.200;2023-05-07T11:10:53;28.90;15.40
418;DHT22;49;48.530;9.200;2023-05-07T11:13:41;28.90;15.40
418;DHT22;49;48.530;9.200;2023-05-07T11:16:17;28.90;16.50
418;DHT22;49;48.530;9.200;2023-05-07T11:18:49;28.60;16.20
418;DHT22;49;48.530;9.200;2023-05-07T11:21:32;28.60;15.60
418;DHT22;49;48.530;9.200;2023-05-07T11:24:00;28.80;15.10
418;DHT22;49;48.530;9.200;2023-05-07T11:26:31;28.90;15.60
418;DHT22;49;48.530;9.200;2023-05-07T11:29:11;28.70;15.50
418;DHT22;49;48.530;9.200;2023-05-07T11:31:38;28.60;16.30
418;DHT22;49;48.530;9.200;2023-05-07T11:34:06;28.90;15.70
418;DHT22;49;48.530;9.200;2023-05-07T11:36:34;29.00;15.10
418;DHT22;49;48.530;9.200;2023-05-07T11:39:01;29.10;14.70
418;DHT22;49;48.530;9.200;2023-05-07T11:41:37;29.10;15.90
418;DHT22;49;48.530;9.200;2023-05-07T11:44:04;29.40;16.40
418;DHT22;49;48.530;9.200;2023-05-07T11:46:30;29.30;16.80
418;DHT22;49;48.530;9.200;2023-05-07T11:48:58;28.90;17.40
418;DHT22;49;48.530;9.200;2023-05-07T11:51:28;28.50;18.30
418;DHT22;49;48.530;9.200;2023-05-07T11:53:55;27.80;18.50
418;DHT22;49;48.530;9.200;2023-05-07T11:56:22;27.70;19.10
418;DHT22;49;48.530;9.200;2023-05-07T11:58:49;27.40;19.50
418;DHT22;49;48.530;9.200;2023-05-07T12:01:17;27.50;19.80
418;DHT22;49;48.530;9.200;2023-05-07T12:03:45;27.40;20.10
418;DHT22;49;48.530;9.200;2023-05-07T12:06:14;27.30;20.10
418;DHT22;49;48.530;9.200;2023-05-07T12:08:43;27.30;21.00
418;DHT22;49;48.530;9.200;2023-05-07T12:11:15;27.20;21.00
418;DHT22;49;48.530;9.200;2023-05-07T12:13:43;26.70;22.40
418;DHT22;49;48.530;9.200;2023-05-07T12:16:11;26.10;23.50
418;DHT22;49;48.530;9.200;2023-05-07T12:18:38;26.10;25.40
418;DHT22;49;48.530;9.200;2023-05-07T12:21:06;26.10;26.20
418;DHT22;49;48.530;9.200;2023-05-07T12:23:34;26.00;26.60
418;DHT22;49;48.530;9.200;2023-05-07T12:26:03;25.90;26.30
418;DHT22;49;48.530;9.200;2023-05-07T12:28:35;25.00;25.80
418;DHT22;49;48.530;9.200;2023-05-07T12:31:04;24.60;27.20
418;DHT22;49;48.530;9.200;2023-05-07T12:33:31;24.60;27.20
418;DHT22;49;48.530;9.200;2023-05-07T12:36:00;24.40;27.10
418;DHT22;49;48.530;9.200;2023-05-07T12:38:34;24.60;27.20
418;DHT22;49;48.530;9.200;2023-05-07T12:41:03;24.80;26.00
418;DHT22;49;48.530;9.200;2023-05-07T12:43:30;25.00;25.70
418;DHT22;49;48.530;9.200;2023-05-07T12:46:00;24.90;25.40
418;DHT22;49;48.530;9.200;2023-05-07T12:48:27;24.80;26.50
418;DHT22;49;48.530;9.200;2023-05-07T12:50:55;24.70;26.50
418;DHT22;49;48.530;9.200;2023-05-07T12:53:23;24.60;26.80
418;DHT22;49;48.530;9.200;2023-05-07T12:55:52;24.70;26.90
418;DHT22;49;48.530;9.200;2023-05-07T12:58:24;25.00;26.10
418;DHT22;49;48.530;9.200;2023-05-07T13:00:52;24.80;27.40
418;DHT22;49;48.530;9.200;2023-05-07T13:03:29;24.40;27.60
418;DHT22;49;48.530;9.200;2023-05-07T13:05:58;24.10;27.80
418;DHT22;49;48.530;9.200;2023-05-07T13:08:27;24.10;28.20
418;DHT22;49;48.530;9.200;2023-05-07T13:10:54;24.10;28.80
418;DHT22;49;48.530;9.200;2023-05-07T13:13:23;24.00;30.50
418;DHT22;49;48.530;9.200;2023-05-07T13:15:50;23.80;32.00
418;DHT22;49;48.530;9.200;2023-05-07T13:18:17;23.70;33.10
418;DHT22;49;48.530;9.200;2023-05-07T13:20:44;23.70;35.90
418;DHT22;49;48.530;9.200;2023-05-07T13:23:11;23.50;40.10
418;DHT22;49;48.530;9.200;2023-05-07T13:25:38;23.00;39.30
418;DHT22;49;48.530;9.200;2023-05-07T13:28:05;22.80;40.20
418;DHT22;49;48.530;9.200;2023-05-07T13:30:33;22.60;48.20
418;DHT22;49;48.530;9.200;2023-05-07T13:33:00;22.40;50.50
418;DHT22;49;48.530;9.200;2023-05-07T13:35:27;22.50;50.50
418;DHT22;49;48.530;9.200;2023-05-07T13:37:54;22.10;51.90
418;DHT22;49;48.530;9.200;2023-05-07T13:40:21;21.80;60.00
418;DHT22;49;48.530;9.200;2023-05-07T13:42:48;21.60;60.10
418;DHT22;49;48.530;9.200;2023-05-07T13:45:15;21.60;66.20
418;DHT22;49;48.530;9.200;2023-05-07T13:47:44;21.60;69.70
418;DHT22;49;48.530;9.200;2023-05-07T13:50:12;21.50;66.50
418;DHT22;49;48.530;9.200;2023-05-07T13:52:41;21.40;71.40
418;DHT22;49;48.530;9.200;2023-05-07T13:55:09;21.40;74.90
418;DHT22;49;48.530;9.200;2023-05-07T13:57:37;21.30;74.90
418;DHT22;49;48.530;9.200;2023-05-07T14:00:05;21.40;78.70
418;DHT22;49;48.530;9.200;2023-05-07T14:02:32;21.30;81.70
418;DHT22;49;48.530;9.200;2023-05-07T14:05:00;21.30;87.10
418;DHT22;49;48.530;9.200;2023-05-07T14:07:27;21.20;87.00
418;DHT22;49;48.530;9.200;2023-05-07T14:09:56;21.10;87.00
418;DHT22;49;48.530;9.200;2023-05-07T14:12:23;21.10;86.90
418;DHT22;49;48.530;9.200;2023-05-07T14:14:50;21.20;90.90
418;DHT22;49;48.530;9.200;2023-05-07T14:17:17;21.40;92.70
418;DHT22;49;48.530;9.200;2023-05-07T14:19:44;21.70;90.40
418;DHT22;49;48.530;9.200;2023-05-07T14:22:13;21.90;84.20
418;DHT22;49;48.530;9.200;2023-05-07T14:24:40;21.80;85.10
418;DHT22;49;48.530;9.200;2023-05-07T14:27:07;21.60;86.50
418;DHT22;49;48.530;9.200;2023-05-07T14:29:34;21.70;86.70
418;DHT22;49;48.530;9.200;2023-05-07T14:32:01;21.80;84.20
418;DHT22;49;48.530;9.200;2023-05-07T14:34:28;21.70;83.30
418;DHT22;49;48.530;9.200;2023-05-07T14:36:55;21.60;82.00
418;DHT22;49;48.530;9.200;2023-05-07T14:39:24;21.40;87.20
418;DHT22;49;48.530;9.200;2023-05-07T14:41:51;21.10;90.80
418;DHT22;49;48.530;9.200;2023-05-07T14:44:20;20.70;94.20
418;DHT22;49;48.530;9.200;2023-05-07T14:46:47;20.80;91.60
418;DHT22;49;48.530;9.200;2023-05-07T14:49:14;20.90;92.90
418;DHT22;49;48.530;9.200;2023-05-07T14:51:43;21.00;94.60
418;DHT22;49;48.530;9.200;2023-05-07T14:54:10;20.70;95.70
418;DHT22;49;48.530;9.200;2023-05-07T14:56:38;20.60;99.80
418;DHT22;49;48.530;9.200;2023-05-07T14:59:05;20.80;99.90
418;DHT22;49;48.530;9.200;2023-05-07T15:01:34;21.20;95.50
418;DHT22;49;48.530;9.200;2023-05-07T15:04:04;21.50;93.90
418;DHT22;49;48.530;9.200;2023-05-07T15:06:31;21.70;93.20
418;DHT22;49;48.530;9.200;2023-05-07T15:08:58;21.70;92.20
418;DHT22;49;48.530;9.200;2023-05-07T15:11:27;21.50;92.00
418;DHT22;49;48.530;9.200;2023-05-07T15:13:55;21.40;91.90
418;DHT22;49;48.530;9.200;2023-05-07T15:16:22;21.50;92.60
418;DHT22;49;48.530;9.200;2023-05-07T15:18:49;21.60;91.20
418;DHT22;49;48.530;9.200;2023-05-07T15:21:16;21.60;91.10
418;DHT22;49;48.530;9.200;2023-05-07T15:23:43;21.60;86.80
418;DHT22;49;48.530;9.200;2023-05-07T15:26:10;22.00;86.00
418;DHT22;49;48.530;9.200;2023-05-07T15:28:38;22.30;81.50
418;DHT22;49;48.530;9.200;2023-05-07T15:31:06;22.50;76.20
418;DHT22;49;48.530;9.200;2023-05-07T15:33:34;22.10;76.20
418;DHT22;49;48.530;9.200;2023-05-07T15:36:01;21.80;76.00
418;DHT22;49;48.530;9.200;2023-05-07T15:38:29;22.10;79.90
418;DHT22;49;48.530;9.200;2023-05-07T15:40:55;22.20;72.80
418;DHT22;49;48.530;9.200;2023-05-07T15:43:22;22.30;70.60
418;DHT22;49;48.530;9.200;2023-05-07T15:45:50;22.40;70.80
418;DHT22;49;48.530;9.200;2023-05-07T15:48:20;22.60;69.80
418;DHT22;49;48.530;9.200;2023-05-07T15:50:47;22.80;68.00
418;DHT22;49;48.530;9.200;2023-05-07T15:53:17;22.70;68.00
418;DHT22;49;48.530;9.200;2023-05-07T15:55:44;22.80;69.80
418;DHT22;49;48.530;9.200;2023-05-07T15:58:11;22.90;66.90
418;DHT22;49;48.530;9.200;2023-05-07T16:00:38;22.90;69.60
418;DHT22;49;48.530;9.200;2023-05-07T16:03:06;23.10;70.40
418;DHT22;49;48.530;9.200;2023-05-07T16:05:35;22.90;71.90
418;DHT22;49;48.530;9.200;2023-05-07T16:08:03;23.20;67.80
418;DHT22;49;48.530;9.200;2023-05-07T16:10:30;23.10;70.60
418;DHT22;49;48.530;9.200;2023-05-07T16:12:57;23.30;65.00
418;DHT22;49;48.530;9.200;2023-05-07T16:15:24;23.00;69.50
418;DHT22;49;48.530;9.200;2023-05-07T16:17:51;22.90;72.10
418;DHT22;49;48.530;9.200;2023-05-07T16:20:23;23.00;72.40
418;DHT22;49;48.530;9.200;2023-05-07T16:22:53;23.00;71.20
418;DHT22;49;48.530;9.200;2023-05-07T16:25:20;23.00;70.20
418;DHT22;49;48.530;9.200;2023-05-07T16:27:47;22.80;72.30
418;DHT22;49;48.530;9.200;2023-05-07T16:30:14;22.60;77.80
418;DHT22;49;48.530;9.200;2023-05-07T16:32:41;22.60;82.40
418;DHT22;49;48.530;9.200;2023-05-07T16:35:09;22.50;83.10
418;DHT22;49;48.530;9.200;2023-05-07T16:37:36;22.50;83.80
418;DHT22;49;48.530;9.200;2023-05-07T16:40:08;22.40;82.30
418;DHT22;49;48.530;9.200;2023-05-07T16:42:35;22.40;84.90
418;DHT22;49;48.530;9.200;2023-05-07T16:45:03;22.20;81.90
418;DHT22;49;48.530;9.200;2023-05-07T16:47:30;22.10;85.90
418;DHT22;49;48.530;9.200;2023-05-07T16:49:56;22.20;84.50
418;DHT22;49;48.530;9.200;2023-05-07T16:52:25;22.20;83.80
418;DHT22;49;48.530;9.200;2023-05-07T16:54:52;22.30;84.00
418;DHT22;49;48.530;9.200;2023-05-07T16:57:24;22.20;83.90
418;DHT22;49;48.530;9.200;2023-05-07T16:59:51;22.50;82.80